Time;durP1;ratioP1;P1;durP2;ratioP2;P2;SDS_P1;SDS_P2;PMS_P1;PMS_P2;Temp;Humidity;BMP_temperature;BMP_pressure;BME280_temperature;BME280_humidity;BME280_pressure;Samples;Min_cycle;Max_cycle;Signal;HPM_P1;HPM_P2
2023/05/09 00:00:50;;;;;;;6.38;3.85;;;24.00;50.30;;;;;;5038710;28;20079;-66
2023/05/09 00:03:16;;;;;;;8.45;4.30;;;24.00;50.30;;;;;;5042087;28;20022;-67
2023/05/09 00:05:42;;;;;;;7.78;4.07;;;24.00;50.30;;;;;;5040888;28;20029;-67
2023/05/09 00:08:08;;;;;;;7.60;4.57;;;24.00;50.30;;;;;;5039804;28;20025;-66
2023/05/09 00:10:33;;;;;;;6.82;4.22;;;23.90;50.20;;;;;;5039611;28;20112;-67
2023/05/09 00:12:59;;;;;;;6.65;3.65;;;23.90;50.30;;;;;;5044687;28;20032;-66
2023/05/09 00:15:25;;;;;;;6.03;3.80;;;23.90;50.20;;;;;;5040241;28;20354;-68
2023/05/09 00:17:51;;;;;;;6.88;4.20;;;24.00;50.20;;;;;;5038568;28;20041;-67
2023/05/09 00:20:17;;;;;;;8.65;3.97;;;23.90;50.20;;;;;;5042301;28;20087;-66
2023/05/09 00:22:43;;;;;;;6.60;4.20;;;23.90;50.20;;;;;;5040327;28;20030;-67
2023/05/09 00:25:09;;;;;;;6.68;3.88;;;23.90;50.20;;;;;;5038931;28;20029;-66
2023/05/09 00:27:35;;;;;;;6.53;4.10;;;23.90;50.20;;;;;;5041027;28;20051;-66
2023/05/09 00:30:02;;;;;;;7.18;4.20;;;23.90;50.20;;;;;;5040311;28;20418;-66
2023/05/09 00:32:28;;;;;;;6.45;4.03;;;23.90;50.20;;;;;;5040001;28;20484;-66
2023/05/09 00:34:54;;;;;;;6.30;3.75;;;23.90;50.20;;;;;;5041536;28;20026;-66
2023/05/09 00:37:20;;;;;;;7.28;4.32;;;23.90;50.40;;;;;;5040953;28;20029;-66
2023/05/09 00:39:47;;;;;;;6.20;3.90;;;23.90;50.20;;;;;;5047666;28;20453;-67
2023/05/09 00:42:12;;;;;;;6.88;4.13;;;23.90;50.20;;;;;;5039402;28;20120;-66
2023/05/09 00:44:38;;;;;;;6.10;3.92;;;23.80;50.10;;;;;;5037762;28;20120;-67
2023/05/09 00:47:04;;;;;;;7.15;4.25;;;23.80;50.10;;;;;;5039470;28;20037;-66
2023/05/09 00:49:30;;;;;;;5.78;3.92;;;23.90;50.20;;;;;;5039507;28;20022;-66
2023/05/09 00:51:56;;;;;;;6.75;4.00;;;23.80;50.10;;;;;;5042262;28;20060;-66
2023/05/09 00:54:21;;;;;;;7.38;3.90;;;23.90;50.20;;;;;;5039651;28;20151;-67
2023/05/09 00:56:47;;;;;;;6.38;3.67;;;23.90;50.20;;;;;;5036705;28;20174;-66
2023/05/09 00:59:13;;;;;;;6.80;3.75;;;23.80;50.10;;;;;;5039298;28;20036;-67
2023/05/09 01:01:38;;;;;;;7.32;3.97;;;23.80;50.10;;;;;;5037406;28;20112;-66
2023/05/09 01:04:04;;;;;;;6.38;3.92;;;23.80;50.10;;;;;;5039782;28;20031;-66
2023/05/09 01:06:47;;;;;;;6.65;3.78;;;23.80;50.10;;;;;;5041782;28;20098;-67
2023/05/09 01:09:39;;;;;;;6.22;3.65;;;23.80;50.10;;;;;;5040577;28;20121;-66
2023/05/09 01:12:46;;;;;;;6.10;3.65;;;23.80;50.70;;;;;;5037142;28;20454;-66
2023/05/09 01:15:37;;;;;;;5.15;3.40;;;23.80;50.10;;;;;;5040065;28;20541;-66
2023/05/09 01:18:34;;;;;;;6.25;3.40;;;23.70;50.10;;;;;;5037475;28;20033;-67
2023/05/09 01:21:09;;;;;;;6.43;3.80;;;23.80;50.10;;;;;;5066779;28;20389;-67
2023/05/09 01:23:43;;;;;;;5.55;3.63;;;23.70;50.10;;;;;;5043368;28;20037;-66
2023/05/09 01:26:44;;;;;;;5.70;3.38;;;23.70;50.10;;;;;;5035832;28;20040;-66
2023/05/09 01:29:47;;;;;;;5.30;3.30;;;23.80;50.10;;;;;;5039692;28;20151;-66
2023/05/09 01:32:23;;;;;;;7.30;3.90;;;23.70;50.10;;;;;;5038477;28;20013;-66
2023/05/09 01:34:54;;;;;;;6.22;3.45;;;23.70;50.10;;;;;;5039155;28;20511;-66
2023/05/09 01:37:31;;;;;;;6.55;4.00;;;23.70;50.00;;;;;;5040976;28;20515;-66
2023/05/09 01:40:06;;;;;;;6.53;3.67;;;23.70;50.10;;;;;;5037473;28;20434;-66
2023/05/09 01:42:39;;;;;;;5.78;3.55;;;23.70;50.10;;;;;;5036854;28;20033;-66
2023/05/09 01:45:06;;;;;;;5.15;3.33;;;23.70;50.10;;;;;;5073000;28;20033;-66
2023/05/09 01:47:33;;;;;;;6.68;3.83;;;23.70;50.60;;;;;;5040444;28;20045;-66
2023/05/09 01:50:01;;;;;;;5.82;3.53;;;23.70;50.10;;;;;;5038035;28;20025;-67
2023/05/09 01:52:28;;;;;;;5.93;3.75;;;23.70;50.10;;;;;;5035471;28;20024;-66
2023/05/09 01:54:54;;;;;;;5.95;3.80;;;23.70;50.10;;;;;;5039575;28;20044;-67
2023/05/09 01:57:22;;;;;;;5.28;3.45;;;23.70;50.10;;;;;;5037749;28;20094;-67
2023/05/09 01:59:48;;;;;;;5.93;3.65;;;23.70;50.10;;;;;;5036433;28;20496;-66
2023/05/09 02:02:14;;;;;;;5.68;3.38;;;23.70;50.10;;;;;;5038242;28;20040;-67
2023/05/09 02:04:42;;;;;;;5.50;3.45;;;23.70;50.10;;;;;;5038460;28;20033;-66
2023/05/09 02:07:10;;;;;;;6.20;3.42;;;23.70;50.10;;;;;;5036972;28;20025;-66
2023/05/09 02:09:35;;;;;;;6.15;3.85;;;23.60;50.00;;;;;;5039770;28;20029;-66
2023/05/09 02:12:03;;;;;;;6.53;3.70;;;23.60;50.00;;;;;;5037385;28;20544;-66
2023/05/09 02:14:29;;;;;;;5.50;3.20;;;23.60;50.00;;;;;;5039151;28;20036;-66
2023/05/09 02:16:55;;;;;;;5.60;3.50;;;23.60;50.00;;;;;;5037580;28;20041;-65
2023/05/09 02:19:20;;;;;;;5.65;3.15;;;23.60;50.00;;;;;;5040221;28;20158;-66
2023/05/09 02:21:46;;;;;;;6.18;3.83;;;23.60;50.00;;;;;;5038540;28;20029;-67
2023/05/09 02:24:11;;;;;;;5.60;3.53;;;23.60;50.00;;;;;;5038952;28;20358;-67
2023/05/09 02:26:38;;;;;;;4.53;3.08;;;23.60;50.00;;;;;;5038134;28;20029;-66
2023/05/09 02:29:06;;;;;;;6.40;3.63;;;23.60;50.00;;;;;;5037903;28;20052;-67
2023/05/09 02:31:33;;;;;;;4.78;3.20;;;23.60;50.00;;;;;;5039174;28;20146;-66
2023/05/09 02:33:59;;;;;;;5.65;3.42;;;23.60;50.00;;;;;;5039590;28;20025;-66
2023/05/09 02:36:26;;;;;;;5.57;3.42;;;23.60;50.00;;;;;;5037768;28;20887;-66
2023/05/09 02:38:52;;;;;;;6.18;3.70;;;23.60;50.00;;;;;;5038631;28;20444;-66
2023/05/09 02:41:18;;;;;;;5.10;2.90;;;23.60;50.00;;;;;;5038559;28;20039;-66
2023/05/09 02:43:44;;;;;;;5.70;3.13;;;23.60;50.00;;;;;;5037655;28;20041;-66
2023/05/09 02:46:10;;;;;;;5.32;3.30;;;23.60;50.00;;;;;;5038272;28;20023;-66
2023/05/09 02:48:36;;;;;;;4.95;3.00;;;23.50;50.00;;;;;;5039254;28;20109;-66
2023/05/09 02:51:02;;;;;;;6.15;3.40;;;23.50;50.00;;;;;;5038863;28;20100;-66
2023/05/09 02:53:27;;;;;;;4.47;2.95;;;23.50;50.00;;;;;;5035428;28;20104;-67
2023/05/09 02:55:53;;;;;;;5.22;3.20;;;23.50;49.90;;;;;;5037206;28;20031;-66
2023/05/09 02:58:19;;;;;;;4.28;2.70;;;23.50;49.90;;;;;;5044249;28;20025;-66
2023/05/09 03:00:45;;;;;;;5.90;3.00;;;23.50;49.90;;;;;;5039060;28;20087;-66
2023/05/09 03:03:11;;;;;;;4.72;3.08;;;23.50;49.90;;;;;;5039070;28;20029;-67
2023/05/09 03:05:37;;;;;;;4.80;3.00;;;23.50;49.90;;;;;;5038969;28;20500;-66
2023/05/09 03:08:02;;;;;;;5.15;3.33;;;23.50;49.90;;;;;;5040116;28;20025;-66
2023/05/09 03:10:28;;;;;;;5.05;3.05;;;23.50;49.90;;;;;;5036749;28;20370;-66
2023/05/09 03:12:54;;;;;;;5.72;3.28;;;23.50;49.90;;;;;;5034544;28;20026;-66
2023/05/09 03:15:20;;;;;;;4.50;2.88;;;23.50;49.90;;;;;;5038394;28;20031;-66
2023/05/09 03:17:46;;;;;;;4.75;2.95;;;23.50;50.50;;;;;;5038043;28;20026;-66
2023/05/09 03:20:11;;;;;;;4.40;3.00;;;23.50;50.00;;;;;;5038907;28;20114;-66
2023/05/09 03:22:37;;;;;;;4.05;2.83;;;23.40;49.90;;;;;;5039658;28;20029;-66
2023/05/09 03:25:03;;;;;;;4.97;3.22;;;23.50;50.00;;;;;;5037614;28;20060;-66
2023/05/09 03:27:29;;;;;;;5.28;3.13;;;23.50;50.00;;;;;;5037528;28;20010;-66
2023/05/09 03:29:55;;;;;;;4.47;2.83;;;23.50;50.00;;;;;;5040228;28;20084;-66
2023/05/09 03:32:20;;;;;;;5.28;3.17;;;23.50;50.00;;;;;;5041825;28;20029;-67
2023/05/09 03:34:46;;;;;;;4.82;3.00;;;23.50;50.00;;;;;;5042832;28;20088;-66
2023/05/09 03:37:12;;;;;;;5.10;2.90;;;23.40;49.90;;;;;;5041279;28;20037;-65
2023/05/09 03:39:37;;;;;;;3.97;2.85;;;23.40;50.00;;;;;;5042231;28;20120;-66
2023/05/09 03:42:03;;;;;;;4.53;3.03;;;23.40;50.00;;;;;;5043184;28;20049;-66
2023/05/09 03:44:29;;;;;;;4.90;3.05;;;23.40;50.00;;;;;;5041790;28;20069;-67
2023/05/09 03:46:55;;;;;;;4.45;2.72;;;23.40;49.90;;;;;;5041710;28;20040;-67
2023/05/09 03:49:20;;;;;;;3.65;2.42;;;23.40;49.90;;;;;;5043325;28;20549;-66
2023/05/09 03:51:46;;;;;;;4.82;3.03;;;23.40;49.90;;;;;;5039082;28;20025;-66
2023/05/09 03:54:11;;;;;;;5.28;2.60;;;23.40;50.00;;;;;;5040170;28;20037;-66
2023/05/09 03:56:37;;;;;;;3.50;2.45;;;23.40;50.00;;;;;;5040790;28;20500;-66
2023/05/09 03:59:02;;;;;;;4.65;2.70;;;23.40;50.00;;;;;;5041372;28;20030;-66
2023/05/09 04:01:28;;;;;;;3.63;2.40;;;23.40;49.90;;;;;;5040173;28;20055;-67
2023/05/09 04:03:56;;;;;;;3.97;2.70;;;23.40;50.00;;;;;;5041866;28;20037;-67
2023/05/09 04:06:22;;;;;;;4.28;2.67;;;23.40;49.90;;;;;;5044037;28;20016;-67
2023/05/09 04:08:48;;;;;;;5.45;3.20;;;23.40;50.00;;;;;;5045300;28;20098;-67
2023/05/09 04:11:14;;;;;;;4.13;2.78;;;23.40;50.00;;;;;;5039316;28;20033;-67
2023/05/09 04:13:39;;;;;;;3.75;2.33;;;23.40;50.00;;;;;;5039275;28;20037;-67
2023/05/09 04:16:05;;;;;;;3.97;2.55;;;23.40;50.00;;;;;;5041817;28;20049;-66
2023/05/09 04:18:31;;;;;;;4.07;2.80;;;23.40;50.00;;;;;;5039827;28;20025;-66
2023/05/09 04:20:56;;;;;;;4.57;2.80;;;23.40;50.00;;;;;;5040497;28;20579;-67
2023/05/09 04:23:22;;;;;;;4.10;2.72;;;23.30;50.00;;;;;;5040159;28;20061;-66
2023/05/09 04:25:50;;;;;;;5.78;2.80;;;23.30;50.00;;;;;;5041740;28;20033;-66
2023/05/09 04:28:15;;;;;;;3.90;2.60;;;23.30;50.00;;;;;;5038501;28;20119;-67
2023/05/09 04:30:41;;;;;;;4.20;2.63;;;23.30;50.00;;;;;;5039282;28;20049;-64
2023/05/09 04:33:06;;;;;;;4.15;2.65;;;23.30;50.00;;;;;;5039124;28;20025;-66
2023/05/09 04:35:32;;;;;;;4.28;2.75;;;23.30;49.90;;;;;;5039866;28;20124;-66
2023/05/09 04:37:57;;;;;;;3.70;2.72;;;23.30;49.90;;;;;;5039753;28;20064;-66
2023/05/09 04:40:23;;;;;;;3.55;2.47;;;23.30;49.90;;;;;;5041750;28;20801;-66
2023/05/09 04:42:49;;;;;;;3.67;2.53;;;23.30;49.90;;;;;;5041685;28;20102;-66
2023/05/09 04:45:14;;;;;;;3.95;2.78;;;23.30;49.90;;;;;;5042323;28;20521;-66
2023/05/09 04:47:40;;;;;;;4.85;2.50;;;23.30;49.90;;;;;;5040256;28;20044;-66
2023/05/09 04:50:06;;;;;;;3.95;2.65;;;23.20;49.90;;;;;;5040085;28;20030;-66
2023/05/09 04:52:32;;;;;;;3.50;2.40;;;23.30;49.90;;;;;;5036329;28;20470;-66
2023/05/09 04:54:58;;;;;;;3.85;2.60;;;23.30;49.90;;;;;;5037645;28;20040;-65
2023/05/09 04:57:23;;;;;;;3.40;2.35;;;23.30;49.80;;;;;;5041000;28;20036;-65
2023/05/09 04:59:49;;;;;;;4.45;2.55;;;23.20;49.80;;;;;;5038526;28;20028;-65
2023/05/09 05:02:14;;;;;;;4.03;2.70;;;23.30;49.80;;;;;;5041383;28;20388;-66
2023/05/09 05:04:40;;;;;;;3.40;2.42;;;23.20;49.70;;;;;;5045945;28;20037;-66
2023/05/09 05:07:06;;;;;;;3.28;2.35;;;23.20;49.70;;;;;;5040166;28;20330;-65
2023/05/09 05:09:31;;;;;;;3.92;2.70;;;23.20;49.70;;;;;;5041719;28;20039;-66
2023/05/09 05:11:57;;;;;;;4.60;2.80;;;23.20;49.70;;;;;;5039592;28;20048;-65
2023/05/09 05:14:23;;;;;;;3.20;2.20;;;23.20;49.80;;;;;;5038817;28;20034;-65
2023/05/09 05:16:48;;;;;;;3.40;2.13;;;23.20;49.80;;;;;;5039282;28;20033;-65
2023/05/09 05:19:14;;;;;;;4.00;2.50;;;23.20;49.80;;;;;;5039607;28;20033;-65
2023/05/09 05:21:39;;;;;;;3.20;2.30;;;23.20;49.80;;;;;;5038096;28;20033;-64
2023/05/09 05:24:05;;;;;;;4.20;2.40;;;23.20;49.70;;;;;;5036409;28;20036;-65
2023/05/09 05:26:30;;;;;;;3.85;2.42;;;23.20;49.80;;;;;;5043367;28;20842;-65
2023/05/09 05:28:56;;;;;;;3.78;2.38;;;23.20;49.70;;;;;;5034932;28;20033;-65
2023/05/09 05:31:22;;;;;;;3.95;2.63;;;23.20;49.70;;;;;;5038088;28;20021;-66
2023/05/09 05:33:47;;;;;;;3.70;2.40;;;23.20;49.70;;;;;;5039472;28;20036;-66
2023/05/09 05:36:13;;;;;;;5.18;2.33;;;23.20;49.70;;;;;;5040356;28;20488;-66
2023/05/09 05:38:39;;;;;;;3.85;2.53;;;23.20;49.80;;;;;;5046219;28;20027;-65
2023/05/09 05:41:04;;;;;;;3.65;2.40;;;23.20;49.80;;;;;;5040015;28;20087;-65
2023/05/09 05:43:30;;;;;;;4.28;2.50;;;23.20;49.80;;;;;;5037240;28;20151;-66
2023/05/09 05:45:56;;;;;;;4.18;2.33;;;23.20;49.80;;;;;;5038725;28;20029;-64
2023/05/09 05:48:22;;;;;;;3.38;2.20;;;23.20;49.80;;;;;;5039475;28;20040;-65
2023/05/09 05:50:47;;;;;;;5.43;2.78;;;23.20;50.50;;;;;;5038170;28;20028;-64
2023/05/09 05:53:13;;;;;;;3.42;2.22;;;23.30;50.60;;;;;;5038683;28;20379;-65
2023/05/09 05:55:38;;;;;;;3.70;2.42;;;23.50;50.60;;;;;;5036688;28;20037;-64
2023/05/09 05:58:04;;;;;;;3.78;2.55;;;23.60;50.30;;;;;;5038424;28;20038;-65
2023/05/09 06:00:30;;;;;;;3.67;2.53;;;23.80;50.10;;;;;;5040188;28;20041;-65
2023/05/09 06:02:55;;;;;;;3.45;2.50;;;23.90;50.00;;;;;;5039114;28;20029;-65
2023/05/09 06:05:21;;;;;;;3.90;2.70;;;24.10;49.80;;;;;;5038646;28;20452;-65
2023/05/09 06:07:46;;;;;;;5.18;2.63;;;24.20;49.70;;;;;;5036948;28;20026;-64
2023/05/09 06:10:14;;;;;;;3.83;2.20;;;24.30;49.50;;;;;;5039268;28;20029;-65
2023/05/09 06:12:40;;;;;;;4.00;2.47;;;24.40;49.30;;;;;;5037615;28;20126;-65
2023/05/09 06:15:06;;;;;;;5.28;2.40;;;24.50;49.20;;;;;;5038559;28;20044;-65
2023/05/09 06:17:32;;;;;;;3.65;2.45;;;24.60;49.20;;;;;;5037292;28;20068;-65
2023/05/09 06:19:58;;;;;;;3.55;2.28;;;24.70;48.80;;;;;;5039550;28;20365;-64
2023/05/09 06:22:24;;;;;;;4.32;2.35;;;24.80;48.70;;;;;;5039150;28;20025;-64
2023/05/09 06:24:49;;;;;;;2.83;1.88;;;24.90;49.10;;;;;;5038573;28;20477;-64
2023/05/09 06:27:15;;;;;;;3.40;2.03;;;25.10;48.40;;;;;;5040097;28;20061;-64
2023/05/09 06:29:40;;;;;;;4.15;1.83;;;25.20;48.20;;;;;;5038334;28;20468;-65
2023/05/09 06:32:06;;;;;;;2.40;1.70;;;25.30;48.00;;;;;;5038574;28;20028;-65
2023/05/09 06:34:32;;;;;;;2.78;1.40;;;25.20;47.90;;;;;;5039667;28;20088;-65
2023/05/09 06:36:57;;;;;;;2.55;1.67;;;25.10;47.90;;;;;;5038827;28;20025;-63
2023/05/09 06:39:23;;;;;;;2.38;1.45;;;25.10;47.90;;;;;;5037150;28;20025;-65
2023/05/09 06:41:49;;;;;;;2.25;1.60;;;25.10;47.90;;;;;;5038565;28;20029;-65
2023/05/09 06:44:14;;;;;;;2.38;1.50;;;25.10;47.90;;;;;;5036058;28;20120;-61
2023/05/09 06:46:40;;;;;;;3.40;1.90;;;25.10;47.90;;;;;;5037218;28;20057;-64
2023/05/09 06:49:05;;;;;;;2.78;1.65;;;25.10;47.80;;;;;;5038907;28;20097;-64
2023/05/09 06:51:31;;;;;;;3.20;1.90;;;25.10;47.70;;;;;;5036873;28;20029;-64
2023/05/09 06:53:57;;;;;;;2.53;1.70;;;25.10;47.70;;;;;;5037281;28;20029;-65
2023/05/09 06:56:24;;;;;;;3.05;2.00;;;25.10;47.70;;;;;;5037913;28;20108;-64
2023/05/09 06:58:50;;;;;;;3.55;1.90;;;25.10;47.70;;;;;;5036070;28;20021;-65
2023/05/09 07:01:16;;;;;;;3.35;1.95;;;25.10;47.70;;;;;;5036846;28;20033;-65
2023/05/09 07:03:42;;;;;;;2.53;1.60;;;25.10;47.60;;;;;;5038700;28;20465;-64
2023/05/09 07:06:08;;;;;;;3.22;1.80;;;25.10;47.60;;;;;;5040314;28;20067;-64
2023/05/09 07:08:34;;;;;;;3.08;1.70;;;25.10;47.60;;;;;;5037339;28;20456;-64
2023/05/09 07:11:00;;;;;;;2.65;1.70;;;25.10;47.60;;;;;;5037358;28;20060;-64
2023/05/09 07:13:25;;;;;;;2.55;1.67;;;25.10;47.50;;;;;;5035451;28;20025;-64
2023/05/09 07:15:51;;;;;;;2.97;2.00;;;25.10;47.50;;;;;;5036884;28;20033;-64
2023/05/09 07:18:16;;;;;;;2.10;1.58;;;25.10;47.50;;;;;;5038203;28;20033;-64
2023/05/09 07:20:42;;;;;;;2.72;1.75;;;25.10;47.50;;;;;;5039199;28;20450;-64
2023/05/09 07:23:08;;;;;;;3.60;1.80;;;25.10;47.50;;;;;;5038342;28;20034;-65
2023/05/09 07:25:33;;;;;;;3.30;2.10;;;25.10;47.50;;;;;;5038743;28;20044;-65
2023/05/09 07:27:59;;;;;;;2.55;1.70;;;25.10;47.50;;;;;;5037437;28;20037;-64
2023/05/09 07:30:25;;;;;;;2.50;1.50;;;25.10;47.50;;;;;;5035761;28;20034;-64
2023/05/09 07:32:51;;;;;;;2.35;1.58;;;25.10;47.50;;;;;;5037415;28;20021;-64
2023/05/09 07:35:17;;;;;;;2.70;1.73;;;25.10;47.50;;;;;;5038429;28;20024;-64
2023/05/09 07:37:43;;;;;;;3.25;1.88;;;25.10;47.50;;;;;;5035497;28;20033;-64
2023/05/09 07:40:09;;;;;;;2.88;2.20;;;25.10;47.50;;;;;;5035708;28;20030;-64
2023/05/09 07:42:35;;;;;;;2.35;1.85;;;25.10;47.50;;;;;;5034694;28;20082;-63
2023/05/09 07:45:03;;;;;;;2.20;1.60;;;25.10;47.50;;;;;;5038032;28;20025;-63
2023/05/09 07:47:28;;;;;;;2.50;1.70;;;25.10;47.50;;;;;;5039264;28;20053;-63
2023/05/09 07:49:54;;;;;;;2.47;1.70;;;25.10;47.50;;;;;;5037697;28;20060;-64
2023/05/09 07:52:20;;;;;;;2.97;1.90;;;25.10;48.00;;;;;;5037595;28;20036;-63
2023/05/09 07:54:45;;;;;;;2.75;1.75;;;25.10;47.50;;;;;;5039249;28;20049;-63
2023/05/09 07:57:11;;;;;;;2.78;1.88;;;25.10;47.50;;;;;;5036417;28;20880;-63
2023/05/09 07:59:37;;;;;;;2.80;1.67;;;25.20;47.70;;;;;;5037244;28;20033;-63
2023/05/09 08:02:02;;;;;;;2.38;1.85;;;25.20;47.60;;;;;;5037095;28;20091;-64
2023/05/09 08:04:28;;;;;;;2.72;1.67;;;25.20;47.60;;;;;;5038864;28;20068;-64
2023/05/09 08:06:54;;;;;;;3.08;1.88;;;25.20;47.60;;;;;;5038801;28;20159;-63
2023/05/09 08:09:20;;;;;;;3.10;1.73;;;25.20;47.60;;;;;;5037308;28;20038;-63
2023/05/09 08:11:46;;;;;;;2.55;1.60;;;25.20;47.60;;;;;;5038022;28;20087;-63
2023/05/09 08:14:11;;;;;;;2.70;1.55;;;25.20;47.60;;;;;;5039410;28;20029;-63
2023/05/09 08:16:37;;;;;;;3.30;1.70;;;25.20;47.60;;;;;;5039248;28;20021;-63
2023/05/09 08:19:02;;;;;;;2.60;1.60;;;25.20;47.60;;;;;;5039549;28;20113;-63
2023/05/09 08:21:28;;;;;;;2.22;1.42;;;25.20;47.60;;;;;;5041260;28;20578;-63
2023/05/09 08:23:54;;;;;;;2.42;1.73;;;25.20;47.60;;;;;;5038325;28;20025;-63
2023/05/09 08:26:21;;;;;;;2.00;1.48;;;25.20;47.50;;;;;;5038560;28;20046;-63
2023/05/09 08:28:47;;;;;;;2.35;1.70;;;25.20;47.50;;;;;;5043812;28;20474;-63
2023/05/09 08:31:12;;;;;;;2.55;1.58;;;25.20;47.50;;;;;;5041224;28;20111;-63
2023/05/09 08:33:38;;;;;;;2.72;1.70;;;25.20;47.50;;;;;;5038396;28;20330;-64
2023/05/09 08:36:04;;;;;;;2.88;1.60;;;25.20;47.50;;;;;;5040502;28;20028;-64
2023/05/09 08:38:29;;;;;;;2.40;1.70;;;25.20;47.50;;;;;;5041066;28;20481;-63
2023/05/09 08:41:02;;;;;;;2.60;1.80;;;25.20;47.50;;;;;;5040986;28;20151;-63
2023/05/09 08:43:28;;;;;;;2.25;1.50;;;25.20;47.50;;;;;;5041788;28;20033;-63
2023/05/09 08:45:57;;;;;;;2.00;1.50;;;25.20;47.50;;;;;;5040676;28;20032;-63
2023/05/09 08:48:23;;;;;;;2.80;1.73;;;25.20;47.50;;;;;;5041078;28;20033;-63
2023/05/09 08:50:49;;;;;;;2.13;1.60;;;25.20;47.50;;;;;;5039346;28;20452;-63
2023/05/09 08:53:15;;;;;;;2.00;1.40;;;25.20;47.50;;;;;;5039643;28;20108;-63
2023/05/09 08:55:41;;;;;;;2.17;1.58;;;25.20;47.50;;;;;;5042666;28;20124;-63
2023/05/09 08:58:08;;;;;;;1.85;1.45;;;25.20;47.40;;;;;;5039820;28;20044;-63
2023/05/09 09:00:37;;;;;;;2.65;1.80;;;25.20;47.40;;;;;;5038571;28;20453;-63
2023/05/09 09:03:05;;;;;;;2.63;1.73;;;25.30;47.50;;;;;;5039577;28;20028;-63
2023/05/09 09:05:34;;;;;;;2.63;1.70;;;25.30;47.50;;;;;;5036913;28;20025;-63
2023/05/09 09:08:02;;;;;;;2.50;1.50;;;25.30;47.40;;;;;;5039295;28;20421;-63
2023/05/09 09:10:30;;;;;;;2.60;1.80;;;25.30;47.40;;;;;;5038192;28;20029;-63
2023/05/09 09:12:58;;;;;;;2.63;1.70;;;25.30;47.50;;;;;;5037493;28;20079;-63
2023/05/09 09:15:28;;;;;;;3.67;1.70;;;25.30;47.50;;;;;;5038071;28;20025;-63
2023/05/09 09:17:56;;;;;;;2.05;1.50;;;25.30;47.50;;;;;;5038777;28;20611;-63
2023/05/09 09:20:22;;;;;;;2.08;1.45;;;25.30;47.50;;;;;;5038831;28;20021;-62
2023/05/09 09:22:50;;;;;;;2.15;1.50;;;25.30;47.50;;;;;;5039462;28;20026;-62
2023/05/09 09:25:16;;;;;;;2.45;1.60;;;25.30;47.40;;;;;;5039910;28;20443;-63
2023/05/09 09:27:41;;;;;;;2.30;1.50;;;25.30;47.50;;;;;;5037070;28;20067;-63
2023/05/09 09:30:09;;;;;;;2.90;1.58;;;25.30;47.40;;;;;;5039364;28;20405;-63
2023/05/09 09:32:34;;;;;;;2.40;1.60;;;25.30;47.40;;;;;;5047344;28;20029;-63
2023/05/09 09:35:07;;;;;;;2.50;1.58;;;25.30;47.40;;;;;;5044316;28;20049;-62
2023/05/09 09:37:42;;;;;;;2.25;1.45;;;25.30;47.40;;;;;;5039582;28;20026;-63
2023/05/09 09:40:09;;;;;;;2.30;1.52;;;25.30;47.60;;;;;;5044412;28;20033;-63
2023/05/09 09:42:47;;;;;;;3.15;1.88;;;25.30;47.30;;;;;;5039727;28;20121;-65
2023/05/09 09:45:15;;;;;;;2.40;1.60;;;25.30;47.00;;;;;;5037163;28;20043;-65
2023/05/09 09:47:42;;;;;;;2.45;1.45;;;25.30;47.00;;;;;;5041716;28;20342;-65
2023/05/09 09:50:17;;;;;;;2.15;1.45;;;25.30;47.00;;;;;;5040141;28;20065;-65
2023/05/09 09:52:54;;;;;;;2.28;1.50;;;25.30;47.00;;;;;;5036763;28;20033;-65
2023/05/09 09:55:21;;;;;;;3.10;1.67;;;25.30;47.00;;;;;;5038221;28;20052;-63
2023/05/09 09:57:48;;;;;;;2.40;1.60;;;25.30;47.00;;;;;;5038478;28;20033;-64
2023/05/09 10:00:15;;;;;;;2.50;1.70;;;25.30;47.00;;;;;;5039716;28;20494;-63
2023/05/09 10:02:54;;;;;;;2.35;1.40;;;25.30;47.00;;;;;;5038651;28;20133;-63
2023/05/09 10:05:21;;;;;;;2.33;1.50;;;25.30;47.10;;;;;;5038821;28;20029;-63
2023/05/09 10:07:58;;;;;;;2.45;1.35;;;25.30;47.10;;;;;;5040451;28;20074;-64
2023/05/09 10:10:28;;;;;;;2.50;1.70;;;25.30;47.20;;;;;;5039033;28;20029;-64
2023/05/09 10:13:00;;;;;;;3.75;1.90;;;25.20;47.20;;;;;;5042931;28;20469;-63
2023/05/09 10:15:27;;;;;;;2.70;1.70;;;25.30;47.20;;;;;;5037679;28;20024;-64
2023/05/09 10:17:56;;;;;;;2.92;1.92;;;25.30;47.30;;;;;;5040629;28;20892;-63
2023/05/09 10:20:23;;;;;;;2.05;1.48;;;25.30;47.30;;;;;;5038827;28;20021;-63
2023/05/09 10:22:57;;;;;;;2.78;1.80;;;25.20;47.20;;;;;;5038169;28;20037;-64
2023/05/09 10:25:52;;;;;;;2.55;1.67;;;25.20;47.20;;;;;;5038653;28;20392;-63
2023/05/09 10:28:22;;;;;;;2.83;1.80;;;25.30;47.40;;;;;;5039357;28;20029;-63
2023/05/09 10:31:28;;;;;;;2.47;1.63;;;25.20;47.30;;;;;;5052621;28;20039;-63
2023/05/09 10:33:57;;;;;;;2.60;1.60;;;25.20;47.30;;;;;;5039355;28;20029;-63
2023/05/09 10:36:23;;;;;;;;;;;25.20;47.30;;;;;;5038484;28;20041;-63
2023/05/09 10:38:53;;;;;;;2.17;1.58;;;25.20;47.40;;;;;;5038754;28;19959;-64
2023/05/09 10:41:20;;;;;;;2.40;1.60;;;25.20;47.40;;;;;;5038966;28;20502;-64
2023/05/09 10:43:47;;;;;;;1.73;1.25;;;25.20;47.50;;;;;;5038164;28;20022;-64
2023/05/09 10:46:14;;;;;;;2.35;1.40;;;25.10;47.50;;;;;;5033520;28;20111;-63
2023/05/09 10:48:41;;;;;;;2.38;1.45;;;25.10;47.60;;;;;;5036975;28;20496;-63
2023/05/09 10:51:07;;;;;;;2.53;1.50;;;25.10;47.60;;;;;;5037711;28;20057;-64
2023/05/09 10:53:42;;;;;;;1.73;1.33;;;25.10;47.60;;;;;;5040020;28;20052;-63
2023/05/09 10:56:08;;;;;;;1.98;1.40;;;25.10;47.70;;;;;;5039343;28;20014;-63
2023/05/09 10:58:39;;;;;;;1.98;1.30;;;25.10;47.60;;;;;;5042103;28;20083;-63
2023/05/09 11:01:05;;;;;;;1.90;1.40;;;25.10;47.60;;;;;;5035778;28;20029;-63
2023/05/09 11:03:54;;;;;;;2.53;1.80;;;25.20;47.70;;;;;;5038161;28;20059;-64
2023/05/09 11:06:49;;;;;;;2.20;1.42;;;25.20;47.70;;;;;;5036219;28;20079;-64
2023/05/09 11:09:28;;;;;;;2.10;1.42;;;25.20;47.60;;;;;;5044900;28;20135;-63
2023/05/09 11:11:56;;;;;;;2.30;1.50;;;25.20;47.60;;;;;;5037341;28;20160;-63
2023/05/09 11:14:34;;;;;;;2.00;1.30;;;25.20;47.70;;;;;;5039530;28;20066;-63
2023/05/09 11:17:03;;;;;;;2.10;1.30;;;25.10;47.60;;;;;;5036549;28;20330;-64
2023/05/09 11:19:56;;;;;;;2.10;1.50;;;25.20;47.70;;;;;;5036671;28;20026;-63
2023/05/09 11:22:26;;;;;;;2.65;1.35;;;25.10;47.70;;;;;;5038997;28;20060;-62
2023/05/09 11:25:08;;;;;;;2.05;1.45;;;25.10;47.80;;;;;;5038018;28;20120;-62
2023/05/09 11:27:43;;;;;;;3.08;1.30;;;25.10;47.90;;;;;;5037667;28;20049;-65
2023/05/09 11:30:14;;;;;;;2.20;1.30;;;25.10;48.00;;;;;;5034547;28;20033;-63
2023/05/09 11:32:44;;;;;;;1.85;1.42;;;25.10;48.00;;;;;;5038774;28;20017;-63
2023/05/09 11:35:16;;;;;;;1.75;1.15;;;25.10;48.00;;;;;;5035006;28;20075;-63
2023/05/09 11:37:54;;;;;;;1.77;1.23;;;25.10;48.10;;;;;;5038914;28;20086;-64
2023/05/09 11:40:21;;;;;;;2.65;1.60;;;25.20;48.00;;;;;;5044430;28;20112;-64
2023/05/09 11:42:54;;;;;;;1.95;1.33;;;25.10;48.00;;;;;;5036698;28;20499;-65
2023/05/09 11:45:26;;;;;;;2.80;1.30;;;25.10;48.00;;;;;;5043164;28;20362;-64
2023/05/09 11:47:52;;;;;;;1.60;1.20;;;25.10;48.20;;;;;;5052918;28;20029;-63
2023/05/09 11:50:19;;;;;;;1.92;1.35;;;25.10;48.60;;;;;;5042646;28;20033;-64
2023/05/09 11:52:46;;;;;;;2.17;1.30;;;25.10;48.20;;;;;;5040589;28;20143;-64
2023/05/09 11:55:21;;;;;;;2.10;1.30;;;25.10;48.20;;;;;;5041169;28;20517;-65
2023/05/09 11:57:49;;;;;;;1.90;1.30;;;25.20;48.90;;;;;;5040095;28;20125;-66
2023/05/09 12:00:22;;;;;;;2.00;1.30;;;25.10;48.20;;;;;;5041629;28;20036;-66
2023/05/09 12:02:49;;;;;;;1.80;1.33;;;25.20;48.30;;;;;;5039795;28;20372;-67
2023/05/09 12:05:20;;;;;;;2.65;1.45;;;25.20;48.20;;;;;;5040686;28;20454;-65
2023/05/09 12:07:46;;;;;;;3.30;1.40;;;25.20;48.20;;;;;;5041713;28;20112;-65
2023/05/09 12:10:18;;;;;;;2.28;1.30;;;25.20;48.20;;;;;;5040436;28;20131;-65
2023/05/09 12:12:46;;;;;;;2.50;1.55;;;25.20;48.20;;;;;;5044002;28;20095;-66
2023/05/09 12:15:12;;;;;;;2.70;1.42;;;25.20;48.20;;;;;;5041364;28;20034;-66
2023/05/09 12:17:39;;;;;;;2.53;1.23;;;25.20;48.20;;;;;;5039426;28;20163;-65
2023/05/09 12:20:05;;;;;;;2.90;1.50;;;25.20;48.20;;;;;;5040600;28;20033;-65
2023/05/09 12:22:31;;;;;;;2.55;1.45;;;25.20;48.20;;;;;;5047076;28;20056;-65
2023/05/09 12:25:04;;;;;;;2.03;1.40;;;25.20;48.30;;;;;;5043043;28;20029;-65
2023/05/09 12:27:32;;;;;;;1.95;1.33;;;25.30;48.30;;;;;;5041422;28;20052;-65
2023/05/09 12:29:59;;;;;;;2.03;1.33;;;25.20;48.20;;;;;;5042177;28;20033;-65
2023/05/09 12:32:30;;;;;;;1.80;1.40;;;25.20;48.30;;;;;;5039318;28;20022;-65
2023/05/09 12:34:56;;;;;;;1.83;1.17;;;25.30;48.40;;;;;;5074982;28;20337;-66
2023/05/09 12:37:22;;;;;;;1.50;1.20;;;25.20;48.30;;;;;;5037554;28;20469;-66
2023/05/09 12:40:15;;;;;;;1.80;1.17;;;25.20;48.30;;;;;;5040708;28;20028;-66
2023/05/09 12:42:43;;;;;;;2.03;1.10;;;25.20;48.30;;;;;;5038572;28;20041;-66
2023/05/09 12:45:10;;;;;;;2.10;1.27;;;25.20;48.30;;;;;;5047610;28;20460;-66
2023/05/09 12:47:40;;;;;;;2.08;1.10;;;25.20;48.40;;;;;;5038725;28;20029;-66
2023/05/09 12:50:07;;;;;;;1.95;1.20;;;25.20;48.40;;;;;;5040741;28;20028;-66
2023/05/09 12:52:40;;;;;;;1.58;1.13;;;25.20;48.30;;;;;;5042518;28;20025;-66